Time,TemperatureF,DewpointF,PressureIn,WindDirection,WindDirectionDegrees,WindSpeedMPH,WindSpeedGustMPH,Humidity,HourlyPrecipIn,Conditions,Clouds,dailyrainin,SoftwareType,DateUTC
2013-04-15 00:00:00,40.1,27.7,28.37,WSW,247,2.1,4.6,61,0.00,RA,SKC,0.00,WeatherDisplay:10.37,2013-04-15 04:00:00,
2013-04-15 00:02:00,40.1,27.7,28.37,West,270,0.2,2.3,61,0.00,RA,SKC,0.00,WeatherDisplay:10.37,2013-04-15 04:02:00,
2013-04-15 00:07:00,40.1,26.5,28.37,West,270,0.8,2.3,58,0.00,RA,SKC,0.00,WeatherDisplay:10.37,2013-04-15 04:07:00,
2013-04-15 00:12:00,40.1,26.1,28.37,WSW,247,0.0,1.2,57,0.00,CLR,SKC,0.00,WeatherDisplay:10.37,2013-04-15 04:12:00,
2013-04-15 00:17:00,40.1,24.3,28.37,WNW,292,0.7,2.0,53,0.00,CLR,SKC,0.00,WeatherDisplay:10.37,2013-04-15 04:17:00,
2013-04-15 00:22:00,40.1,24.3,28.38,WSW,247,0.4,2.0,53,0.00,CLR,SKC,0.00,WeatherDisplay:10.37,2013-04-15 04:22:00,
2013-04-15 00:27:00,40.1,22.9,28.38,NW,315,0.6,3.5,50,0.00,CLR,SKC,0.00,WeatherDisplay:10.37,2013-04-15 04:27:00,
2013-04-15 00:32:00,40.1,22.4,28.38,WNW,292,0.0,0.0,49,0.00,CLR,SKC,0.00,WeatherDisplay:10.37,2013-04-15 04:32:00,
2013-04-15 00:37:00,39.1,18.4,28.38,WNW,292,0.1,1.0,43,0.00,CLR,SKC,0.00,WeatherDisplay:10.37,2013-04-15 04:37:00,
2013-04-15 00:42:00,39.1,17.9,28.38,WNW,292,0.0,0.0,42,0.00,CLR,SKC,0.00,WeatherDisplay:10.37,2013-04-15 04:42:00,
2013-04-15 00:47:00,39.1,16.8,28.38,WSW,247,0.0,0.0,40,0.00,CLR,SKC,0.00,WeatherDisplay:10.37,2013-04-15 04:47:00,
2013-04-15 00:52:00,39.1,17.3,28.37,WNW,292,0.0,0.0,41,0.00,CLR,SKC,0.00,WeatherDisplay:10.37,2013-04-15 04:52:00,
2013-04-15 00:57:00,39.1,15.6,28.37,WSW,247,0.4,1.2,38,0.00,CLR,SKC,0.00,WeatherDisplay:10.37,2013-04-15 04:57:00,
2013-04-15 01:02:00,39.1,16.2,28.37,WNW,292,0.3,3.5,39,0.00,CLR,SKC,0.00,WeatherDisplay:10.37,2013-04-15 05:02:00,
2013-04-15 01:07:00,39.1,15.0,28.37,NW,315,0.5,4.0,37,0.00,CLR,SKC,0.00,WeatherDisplay:10.37,2013-04-15 05:07:00,
2013-04-15 01:12:00,39.1,15.0,28.37,WSW,247,0.7,1.0,37,0.00,CLR,SKC,0.00,WeatherDisplay:10.37,2013-04-15 05:12:00,
2013-04-15 01:17:00,39.1,13.7,28.37,WNW,292,0.3,3.5,35,0.00,CLR,SKC,0.00,WeatherDisplay:10.37,2013-04-15 05:17:00,
2013-04-15 01:22:00,39.1,14.3,28.37,NNW,337,0.0,0.0,36,0.00,CLR,SKC,0.00,WeatherDisplay:10.37,2013-04-15 05:22:00,
2013-04-15 01:27:00,39.1,13.0,28.37,West,270,0.2,0.0,34,0.00,CLR,SKC,0.00,WeatherDisplay:10.37,2013-04-15 05:27:00,
2013-04-15 01:32:00,39.1,14.3,28.37,NNW,337,0.0,0.0,36,0.00,CLR,SKC,0.00,WeatherDisplay:10.37,2013-04-15 05:32:00,
2013-04-15 01:37:00,39.1,13.0,28.37,NNW,337,0.6,4.0,34,0.00,CLR,SKC,0.00,WeatherDisplay:10.37,2013-04-15 05:37:00,
2013-04-15 01:42:00,39.1,14.3,28.37,NW,315,0.2,6.0,36,0.00,CLR,SKC,0.00,WeatherDisplay:10.37,2013-04-15 05:42:00,
2013-04-15 01:47:00,39.1,13.0,28.37,WSW,247,1.8,5.8,34,0.00,CLR,SKC,0.00,WeatherDisplay:10.37,2013-04-15 05:47:00,
2013-04-15 01:53:00,40.1,14.6,28.37,NW,315,1.1,6.9,35,0.00,CLR,SKC,0.00,WeatherDisplay:10.37,2013-04-15 05:53:00,
2013-04-15 01:58:00,39.1,12.4,28.37,NNW,337,1.0,3.5,33,0.00,CLR,SKC,0.00,WeatherDisplay:10.37,2013-04-15 05:58:00,
2013-04-15 02:03:00,40.1,13.9,28.37,ENE,67,0.6,3.5,34,0.00,CLR,SKC,0.00,WeatherDisplay:10.37,2013-04-15 06:03:00,
2013-04-15 02:08:00,40.1,13.2,28.37,SSW,202,1.0,3.5,33,0.00,CLR,SKC,0.00,WeatherDisplay:10.37,2013-04-15 06:08:00,
2013-04-15 02:13:00,40.1,14.6,28.38,WNW,292,0.0,1.0,35,0.00,CLR,SKC,0.00,WeatherDisplay:10.37,2013-04-15 06:13:00,
2013-04-15 02:18:00,39.1,13.0,28.38,NNW,337,0.6,6.0,34,0.00,CLR,SKC,0.00,WeatherDisplay:10.37,2013-04-15 06:18:00,
2013-04-15 02:23:00,40.1,15.2,28.38,NW,315,0.2,2.3,36,0.00,CLR,SKC,0.00,WeatherDisplay:10.37,2013-04-15 06:23:00,
2013-04-15 02:28:00,39.1,13.7,28.38,WNW,292,1.3,4.6,35,0.00,CLR,SKC,0.00,WeatherDisplay:10.37,2013-04-15 06:28:00,
2013-04-15 02:33:00,40.1,15.2,28.38,WSW,247,0.5,4.0,36,0.00,CLR,SKC,0.00,WeatherDisplay:10.37,2013-04-15 06:33:00,
2013-04-15 02:38:00,39.1,13.7,28.38,WNW,292,1.2,4.6,35,0.00,CLR,SKC,0.00,WeatherDisplay:10.37,2013-04-15 06:38:00,
2013-04-15 02:43:00,39.1,13.0,28.38,NNW,337,2.0,4.6,34,0.00,CLR,SKC,0.00,WeatherDisplay:10.37,2013-04-15 06:43:00,
2013-04-15 02:48:00,39.1,13.7,28.38,WNW,292,0.0,1.2,35,0.00,CLR,SKC,0.00,WeatherDisplay:10.37,2013-04-15 06:48:00,
2013-04-15 02:53:00,40.1,15.2,28.38,NNW,337,1.0,3.5,36,0.00,CLR,SKC,0.00,WeatherDisplay:10.37,2013-04-15 06:53:00,
2013-04-15 02:58:00,39.1,13.0,28.38,WNW,292,0.3,2.3,34,0.00,CLR,SKC,0.00,WeatherDisplay:10.37,2013-04-15 06:58:00,
2013-04-15 03:03:00,39.1,13.0,28.38,NW,315,0.1,1.2,34,0.00,CLR,SKC,0.00,WeatherDisplay:10.37,2013-04-15 07:03:00,
2013-04-15 03:41:00,38.1,12.1,28.39,WNW,292,1.2,5.0,34,0.00,CLR,SKC,0.00,WeatherDisplay:10.37,2013-04-15 07:41:00,
2013-04-15 03:42:00,38.1,12.1,28.39,SSE,157,1.2,3.5,34,0.00,CLR,SKC,0.00,WeatherDisplay:10.37,2013-04-15 07:42:00,
2013-04-15 03:47:00,38.1,12.1,28.40,NW,315,0.0,2.3,34,0.00,CLR,SKC,0.00,WeatherDisplay:10.37,2013-04-15 07:47:00,
2013-04-15 03:48:00,38.1,12.1,28.40,NW,315,0.8,3.5,34,0.00,CLR,SKC,0.00,WeatherDisplay:10.37,2013-04-15 07:48:00,
2013-04-15 03:49:00,38.1,12.1,28.40,WNW,292,0.9,3.5,34,0.00,CLR,SKC,0.00,WeatherDisplay:10.37,2013-04-15 07:49:00,
2013-04-15 03:53:00,38.1,12.1,28.40,WNW,292,1.2,2.3,34,0.00,CLR,SKC,0.00,WeatherDisplay:10.37,2013-04-15 07:53:00,
2013-04-15 03:58:00,38.1,12.1,28.40,West,270,0.0,2.3,34,0.00,CLR,SKC,0.00,WeatherDisplay:10.37,2013-04-15 07:58:00,
2013-04-15 04:03:00,38.1,12.1,28.40,WNW,292,0.2,0.0,34,0.00,CLR,SKC,0.00,WeatherDisplay:10.37,2013-04-15 08:03:00,
2013-04-15 04:08:00,38.1,12.1,28.40,NNE,22,0.8,0.0,34,0.00,CLR,SKC,0.00,WeatherDisplay:10.37,2013-04-15 08:08:00,
2013-04-15 04:13:00,38.1,12.1,28.41,SW,225,0.6,1.2,34,0.00,CLR,SKC,0.00,WeatherDisplay:10.37,2013-04-15 08:13:00,
2013-04-15 04:18:00,38.1,12.1,28.41,WNW,292,0.3,2.3,34,0.00,CLR,SKC,0.00,WeatherDisplay:10.37,2013-04-15 08:18:00,
2013-04-15 04:23:00,38.1,12.1,28.41,NW,315,0.0,0.0,34,0.00,CLR,SKC,0.00,WeatherDisplay:10.37,2013-04-15 08:23:00,
2013-04-15 04:28:00,37.1,11.3,28.41,West,270,0.5,3.5,34,0.00,CLR,SKC,0.00,WeatherDisplay:10.37,2013-04-15 08:28:00,
2013-04-15 04:33:00,37.1,11.3,28.41,NNE,22,0.4,3.0,34,0.00,CLR,SKC,0.00,WeatherDisplay:10.37,2013-04-15 08:33:00,
2013-04-15 04:36:00,37.1,11.3,28.41,NNW,337,0.2,2.0,34,0.00,CLR,SKC,0.00,WeatherDisplay:10.37,2013-04-15 08:36:00,
2013-04-15 04:40:00,37.1,11.3,28.41,NW,309,0.0,2.0,34,0.00,CLR,SKC,0.00,WeatherDisplay:10.37,2013-04-15 08:40:00,
2013-04-15 04:41:00,37.1,10.6,28.41,NNW,337,0.0,0.0,33,0.00,CLR,SKC,0.00,WeatherDisplay:10.37,2013-04-15 08:41:00,
2013-04-15 04:46:00,37.1,10.6,28.42,NW,315,0.0,0.0,33,0.00,CLR,SKC,0.00,WeatherDisplay:10.37,2013-04-15 08:46:00,
2013-04-15 04:51:00,37.1,10.6,28.42,WNW,292,0.0,0.0,33,0.00,CLR,SKC,0.00,WeatherDisplay:10.37,2013-04-15 08:51:00,
2013-04-15 04:56:00,37.1,9.9,28.42,NW,315,0.0,0.0,32,0.00,CLR,SKC,0.00,WeatherDisplay:10.37,2013-04-15 08:56:00,
2013-04-15 05:01:00,37.1,9.9,28.42,NW,315,0.9,1.0,32,0.00,CLR,SKC,0.00,WeatherDisplay:10.37,2013-04-15 09:01:00,
2013-04-15 05:06:00,37.1,9.9,28.42,WSW,247,0.0,0.0,32,0.00,CLR,SKC,0.00,WeatherDisplay:10.37,2013-04-15 09:06:00,
2013-04-15 05:11:00,37.1,9.2,28.42,WNW,292,0.0,0.0,31,0.00,CLR,SKC,0.00,WeatherDisplay:10.37,2013-04-15 09:11:00,
2013-04-15 05:16:00,36.1,8.3,28.42,NNW,337,0.6,3.5,31,0.00,CLR,SKC,0.00,WeatherDisplay:10.37,2013-04-15 09:16:00,
2013-04-15 05:21:00,36.1,8.3,28.42,WNW,292,0.0,0.0,31,0.00,CLR,SKC,0.00,WeatherDisplay:10.37,2013-04-15 09:21:00,
2013-04-15 05:26:00,36.1,8.3,28.43,North,360,0.2,2.3,31,0.00,CLR,SKC,0.00,WeatherDisplay:10.37,2013-04-15 09:26:00,
2013-04-15 05:32:00,36.1,8.3,28.43,NNW,337,1.0,0.0,31,0.00,CLR,SKC,0.00,WeatherDisplay:10.37,2013-04-15 09:32:00,
2013-04-15 05:37:00,36.1,8.3,28.45,West,270,0.0,0.0,31,0.00,CLR,SKC,0.00,WeatherDisplay:10.37,2013-04-15 09:37:00,
2013-04-15 05:42:00,36.1,9.0,28.45,North,360,0.0,0.0,32,0.00,CLR,SKC,0.00,WeatherDisplay:10.37,2013-04-15 09:42:00,
2013-04-15 05:47:00,36.1,7.6,28.45,NNW,337,0.0,0.0,30,0.00,CLR,SKC,0.00,WeatherDisplay:10.37,2013-04-15 09:47:00,
2013-04-15 05:52:00,36.1,8.3,28.46,NW,315,0.2,1.0,31,0.00,CLR,SKC,0.00,WeatherDisplay:10.37,2013-04-15 09:52:00,
2013-04-15 05:57:00,36.1,6.8,28.46,North,360,0.0,3.5,29,0.00,CLR,SKC,0.00,WeatherDisplay:10.37,2013-04-15 09:57:00,
2013-04-15 06:02:00,36.1,7.6,28.47,West,270,0.2,2.3,30,0.00,CLR,SKC,0.00,WeatherDisplay:10.37,2013-04-15 10:02:00,
2013-04-15 06:07:00,36.1,6.1,28.47,North,360,0.2,0.0,28,0.00,CLR,SKC,0.00,WeatherDisplay:10.37,2013-04-15 10:07:00,
2013-04-15 06:12:00,36.1,6.8,28.48,ENE,67,0.0,1.2,29,0.00,CLR,SKC,0.00,WeatherDisplay:10.37,2013-04-15 10:12:00,
2013-04-15 06:17:00,36.1,4.4,28.48,North,360,0.8,3.5,26,0.00,CLR,SKC,0.00,WeatherDisplay:10.37,2013-04-15 10:17:00,
2013-04-15 06:22:00,36.1,4.4,28.48,NNW,337,0.1,0.0,26,0.00,CLR,SKC,0.00,WeatherDisplay:10.37,2013-04-15 10:22:00,
2013-04-15 06:27:00,36.1,3.6,28.48,NNW,337,0.0,0.0,25,0.00,CLR,SKC,0.00,WeatherDisplay:10.37,2013-04-15 10:27:00,
2013-04-15 06:32:00,36.1,3.6,28.48,North,360,0.0,0.0,25,0.00,CLR,SKC,0.00,WeatherDisplay:10.37,2013-04-15 10:32:00,
2013-04-15 06:37:00,37.1,2.6,28.48,NNW,337,0.5,2.3,23,0.00,CLR,SKC,0.00,WeatherDisplay:10.37,2013-04-15 10:37:00,
2013-04-15 06:42:00,37.1,1.7,28.49,NNE,22,0.3,5.0,22,0.00,CLR,SKC,0.00,WeatherDisplay:10.37,2013-04-15 10:42:00,
2013-04-15 06:47:00,37.1,0.7,28.49,WNW,292,0.5,3.5,21,0.00,CLR,SKC,0.00,WeatherDisplay:10.37,2013-04-15 10:47:00,
2013-04-15 06:53:00,38.1,-0.6,28.50,NNE,22,0.0,2.3,19,0.00,CLR,SKC,0.00,WeatherDisplay:10.37,2013-04-15 10:53:00,
2013-04-15 06:58:00,39.1,-3.4,28.50,North,360,0.0,0.0,16,0.00,CLR,SKC,0.00,WeatherDisplay:10.37,2013-04-15 10:58:00,
2013-04-15 07:03:00,39.1,-6.2,28.50,NNW,337,0.8,3.5,14,0.00,CLR,SKC,0.00,WeatherDisplay:10.37,2013-04-15 11:03:00,
2013-04-15 07:08:00,40.1,-12.3,28.50,ENE,67,2.0,4.6,10,0.00,CLR,SKC,0.00,WeatherDisplay:10.37,2013-04-15 11:08:00,
2013-04-15 07:13:00,40.1,-14.4,28.51,NE,45,0.9,3.5,9,0.00,CLR,SKC,0.00,WeatherDisplay:10.37,2013-04-15 11:13:00,
2013-04-15 07:18:00,40.1,-16.7,28.51,NNW,337,0.1,1.2,8,0.00,CLR,SKC,0.00,WeatherDisplay:10.37,2013-04-15 11:18:00,
2013-04-15 07:23:00,41.1,-18.5,28.52,NNE,22,0.0,0.0,7,0.00,CLR,SKC,0.00,WeatherDisplay:10.37,2013-04-15 11:23:00,
2013-04-15 07:28:00,41.1,-25.0,28.52,North,360,0.6,3.5,5,0.00,CLR,SKC,0.00,WeatherDisplay:10.37,2013-04-15 11:28:00,
2013-04-15 07:33:00,42.1,-24.3,28.52,NE,45,0.1,3.5,5,0.00,CLR,SKC,0.00,WeatherDisplay:10.37,2013-04-15 11:33:00,
2013-04-15 07:38:00,42.1,-28.4,28.52,North,360,0.2,2.3,4,0.00,CLR,SKC,0.00,WeatherDisplay:10.37,2013-04-15 11:38:00,
2013-04-15 07:44:00,42.1,-33.7,28.52,West,270,0.8,2.3,3,0.00,CLR,SKC,0.00,WeatherDisplay:10.37,2013-04-15 11:44:00,
2013-04-15 07:49:00,43.1,-33.0,28.52,NNE,22,0.3,3.5,3,0.00,CLR,SKC,0.00,WeatherDisplay:10.37,2013-04-15 11:49:00,
2013-04-15 07:54:00,43.1,-33.0,28.53,NNE,22,0.5,3.5,3,0.00,CLR,SKC,0.00,WeatherDisplay:10.37,2013-04-15 11:54:00,
2013-04-15 07:59:00,43.1,-33.0,28.53,ESE,112,0.9,3.5,3,0.00,CLR,SKC,0.00,WeatherDisplay:10.37,2013-04-15 11:59:00,
2013-04-15 08:04:00,44.1,-32.3,28.53,ESE,112,2.1,6.9,3,0.00,CLR,SKC,0.00,WeatherDisplay:10.37,2013-04-15 12:04:00,
2013-04-15 08:09:00,44.1,-19.3,28.53,ENE,67,1.2,9.2,6,0.00,CLR,SKC,0.00,WeatherDisplay:10.37,2013-04-15 12:09:00,
2013-04-15 08:14:00,44.1,-7.2,28.53,ENE,67,3.5,8.1,11,0.00,CLR,SKC,0.00,WeatherDisplay:10.37,2013-04-15 12:14:00,
2013-04-15 08:19:00,44.1,0.7,28.53,ENE,67,0.3,5.8,16,0.00,CLR,SKC,0.00,WeatherDisplay:10.37,2013-04-15 12:19:00,
2013-04-15 08:24:00,45.1,6.3,28.53,East,90,1.6,4.6,20,0.00,CLR,SKC,0.00,WeatherDisplay:10.37,2013-04-15 12:24:00,
2013-04-15 08:29:00,45.1,9.4,28.53,NE,45,3.2,5.8,23,0.00,CLR,SKC,0.00,WeatherDisplay:10.37,2013-04-15 12:29:00,
2013-04-15 08:35:00,45.1,13.9,28.53,NE,38,0.0,6.0,28,0.00,CLR,SKC,0.00,WeatherDisplay:10.37,2013-04-15 12:35:00,
2013-04-15 08:40:00,46.1,19.2,28.53,North,360,1.7,4.0,34,0.00,CLR,SKC,0.00,WeatherDisplay:10.37,2013-04-15 12:40:00,
2013-04-15 08:45:00,46.1,26.9,28.53,NW,315,1.2,3.5,47,0.00,CLR,SKC,0.00,WeatherDisplay:10.37,2013-04-15 12:45:00,
2013-04-15 08:50:00,46.1,26.4,28.53,East,90,0.6,3.5,46,0.00,CLR,SKC,0.00,WeatherDisplay:10.37,2013-04-15 12:50:00,
2013-04-15 08:55:00,46.1,26.4,28.53,NNE,22,1.1,4.6,46,0.00,CLR,SKC,0.00,WeatherDisplay:10.37,2013-04-15 12:55:00,
2013-04-15 09:00:00,46.1,29.4,28.53,NNE,22,0.2,2.3,52,0.00,CLR,SKC,0.00,WeatherDisplay:10.37,2013-04-15 13:00:00,
2013-04-15 09:05:00,47.1,30.3,28.53,NNE,22,0.7,3.5,52,0.00,CLR,SKC,0.00,WeatherDisplay:10.37,2013-04-15 13:05:00,
2013-04-15 09:10:00,47.1,33.1,28.53,ENE,67,0.2,1.2,58,0.00,CLR,SKC,0.00,WeatherDisplay:10.37,2013-04-15 13:10:00,
2013-04-15 09:15:00,47.1,32.6,28.53,ESE,112,0.3,3.5,57,0.00,CLR,SKC,0.00,WeatherDisplay:10.37,2013-04-15 13:15:00,
2013-04-15 09:20:00,48.1,33.6,28.53,NE,45,1.5,3.5,57,0.00,CLR,SKC,0.00,WeatherDisplay:10.37,2013-04-15 13:20:00,
2013-04-15 09:25:00,47.1,32.6,28.54,ENE,67,1.0,3.5,57,0.00,CLR,SKC,0.00,WeatherDisplay:10.37,2013-04-15 13:25:00,
2013-04-15 09:30:00,49.1,35.8,28.54,NNE,22,1.4,4.6,60,0.00,CLR,SKC,0.00,WeatherDisplay:10.37,2013-04-15 13:30:00,
2013-04-15 09:35:00,49.1,36.2,28.54,NNE,22,1.6,3.5,61,0.00,CLR,SKC,0.00,WeatherDisplay:10.37,2013-04-15 13:35:00,
2013-04-15 09:40:00,49.1,37.0,28.54,SSE,157,1.9,3.5,63,0.00,CLR,SKC,0.00,WeatherDisplay:10.37,2013-04-15 13:40:00,
2013-04-15 09:45:00,49.1,38.6,28.55,NNE,22,0.2,3.5,67,0.00,CLR,SKC,0.00,WeatherDisplay:10.37,2013-04-15 13:45:00,
2013-04-15 09:50:00,49.1,39.0,28.55,ESE,112,1.7,3.5,68,0.00,CLR,SKC,0.00,WeatherDisplay:10.37,2013-04-15 13:50:00,
2013-04-15 09:55:00,49.1,38.6,28.56,ESE,112,2.3,4.0,67,0.00,CLR,SKC,0.00,WeatherDisplay:10.37,2013-04-15 13:55:00,
2013-04-15 10:00:00,50.1,38.4,28.56,East,90,2.1,3.5,64,0.00,CLR,SKC,0.00,WeatherDisplay:10.37,2013-04-15 14:00:00,
2013-04-15 10:05:00,50.1,38.0,28.56,East,90,2.8,3.5,63,0.00,CLR,SKC,0.00,WeatherDisplay:10.37,2013-04-15 14:05:00,
2013-04-15 10:10:00,52.1,40.7,28.56,ESE,112,3.1,4.6,65,0.00,CLR,SKC,0.00,WeatherDisplay:10.37,2013-04-15 14:10:00,
2013-04-15 10:15:00,52.1,41.8,28.56,East,90,3.4,4.6,68,0.00,CLR,SKC,0.00,WeatherDisplay:10.37,2013-04-15 14:15:00,
2013-04-15 10:20:00,52.1,42.6,28.56,East,90,3.9,4.6,70,0.00,CLR,SKC,0.00,WeatherDisplay:10.37,2013-04-15 14:20:00,
2013-04-15 10:25:00,53.1,43.6,28.56,East,90,3.6,5.0,70,0.00,CLR,SKC,0.00,WeatherDisplay:10.37,2013-04-15 14:25:00,
2013-04-15 10:31:00,54.1,44.5,28.56,ESE,112,3.1,3.5,70,0.00,CLR,SKC,0.00,WeatherDisplay:10.37,2013-04-15 14:31:00,
2013-04-15 10:36:00,53.1,43.6,28.56,ESE,112,3.3,4.6,70,0.00,CLR,SKC,0.00,WeatherDisplay:10.37,2013-04-15 14:36:00,
2013-04-15 10:41:00,54.1,44.5,28.56,ESE,112,4.3,5.8,70,0.00,CLR,SKC,0.00,WeatherDisplay:10.37,2013-04-15 14:41:00,
2013-04-15 10:46:00,54.1,44.5,28.56,East,90,4.4,5.8,70,0.00,CLR,SKC,0.00,WeatherDisplay:10.37,2013-04-15 14:46:00,
2013-04-15 10:51:00,53.1,44.3,28.56,East,90,4.6,5.8,72,0.00,CLR,SKC,0.00,WeatherDisplay:10.37,2013-04-15 14:51:00,
2013-04-15 10:56:00,53.1,44.3,28.56,ESE,112,4.4,6.9,72,0.00,CLR,SKC,0.00,WeatherDisplay:10.37,2013-04-15 14:56:00,
2013-04-15 11:01:00,54.1,45.3,28.56,ENE,67,2.9,6.9,72,0.00,CLR,SKC,0.00,WeatherDisplay:10.37,2013-04-15 15:01:00,
2013-04-15 11:06:00,54.1,45.6,28.56,East,90,4.0,4.6,73,0.00,CLR,SKC,0.00,WeatherDisplay:10.37,2013-04-15 15:06:00,
2013-04-15 11:11:00,54.1,45.6,28.56,ENE,67,4.0,6.9,73,0.00,CLR,SKC,0.00,WeatherDisplay:10.37,2013-04-15 15:11:00,
2013-04-15 11:16:00,55.1,46.9,28.56,East,90,5.1,6.0,74,0.00,CLR,SKC,0.00,WeatherDisplay:10.37,2013-04-15 15:16:00,
2013-04-15 11:22:00,53.1,44.3,28.56,East,90,3.2,5.8,72,0.00,CLR,SKC,0.00,WeatherDisplay:10.37,2013-04-15 15:22:00,
2013-04-15 11:27:00,53.1,45.0,28.56,ESE,112,1.6,5.8,74,0.00,CLR,SKC,0.00,WeatherDisplay:10.37,2013-04-15 15:27:00,
2013-04-15 11:32:00,54.1,46.3,28.56,East,90,1.9,3.5,75,0.00,CLR,SKC,0.00,WeatherDisplay:10.37,2013-04-15 15:32:00,
2013-04-15 11:37:00,53.1,45.7,28.56,ESE,112,3.0,8.1,76,0.00,CLR,SKC,0.00,WeatherDisplay:10.37,2013-04-15 15:37:00,
2013-04-15 11:42:00,54.1,46.7,28.56,ESE,112,3.7,5.8,76,0.00,CLR,SKC,0.00,WeatherDisplay:10.37,2013-04-15 15:42:00,
2013-04-15 11:47:00,54.1,46.7,28.56,East,90,3.5,4.6,76,0.00,CLR,SKC,0.00,WeatherDisplay:10.37,2013-04-15 15:47:00,
2013-04-15 11:52:00,55.1,48.3,28.56,ESE,112,4.6,8.1,78,0.00,CLR,SKC,0.00,WeatherDisplay:10.37,2013-04-15 15:52:00,
2013-04-15 11:57:00,55.1,47.6,28.56,East,90,3.0,5.0,76,0.00,CLR,SKC,0.00,WeatherDisplay:10.37,2013-04-15 15:57:00,
2013-04-15 12:02:00,54.1,46.0,28.56,NE,45,4.3,6.9,74,0.00,CLR,SKC,0.00,WeatherDisplay:10.37,2013-04-15 16:02:00,
2013-04-15 12:07:00,54.1,46.0,28.56,ESE,112,4.6,8.0,74,0.00,CLR,SKC,0.00,WeatherDisplay:10.37,2013-04-15 16:07:00,
2013-04-15 12:12:00,55.1,47.6,28.56,East,90,4.6,5.8,76,0.00,CLR,SKC,0.00,WeatherDisplay:10.37,2013-04-15 16:12:00,
2013-04-15 12:17:00,55.1,47.6,28.56,ESE,112,3.9,5.0,76,0.00,CLR,SKC,0.00,WeatherDisplay:10.37,2013-04-15 16:17:00,
2013-04-15 12:22:00,56.1,47.9,28.56,NE,45,1.2,3.5,74,0.00,CLR,SKC,0.00,WeatherDisplay:10.37,2013-04-15 16:22:00,
2013-04-15 12:27:00,57.1,49.6,28.56,ESE,112,4.4,8.1,76,0.00,CLR,SKC,0.00,WeatherDisplay:10.37,2013-04-15 16:27:00,
2013-04-15 12:32:00,57.1,48.9,28.56,East,90,3.6,4.6,74,0.00,CLR,SKC,0.00,WeatherDisplay:10.37,2013-04-15 16:32:00,
2013-04-15 12:37:00,55.1,46.2,28.56,ESE,112,2.7,8.1,72,0.00,CLR,SKC,0.00,WeatherDisplay:10.37,2013-04-15 16:37:00,
2013-04-15 12:42:00,55.1,46.6,28.56,ENE,67,4.7,9.2,73,0.00,CLR,SKC,0.00,WeatherDisplay:10.37,2013-04-15 16:42:00,
2013-04-15 12:47:00,56.1,48.3,28.56,ESE,112,1.7,5.8,75,0.00,CLR,SKC,0.00,WeatherDisplay:10.37,2013-04-15 16:47:00,
2013-04-15 12:52:00,56.1,47.5,28.56,ESE,112,5.1,6.9,73,0.00,CLR,SKC,0.00,WeatherDisplay:10.37,2013-04-15 16:52:00,
2013-04-15 12:57:00,55.1,46.9,28.56,ESE,112,3.1,6.9,74,0.00,CLR,SKC,0.00,WeatherDisplay:10.37,2013-04-15 16:57:00,
2013-04-15 13:03:00,55.1,46.9,28.56,East,90,3.5,5.8,74,0.00,CLR,SKC,0.00,WeatherDisplay:10.37,2013-04-15 17:03:00,
2013-04-15 13:08:00,55.1,47.6,28.56,ESE,112,4.2,6.9,76,0.00,CLR,SKC,0.00,WeatherDisplay:10.37,2013-04-15 17:08:00,
2013-04-15 13:13:00,54.1,46.3,28.56,East,90,3.8,5.0,75,0.00,CLR,SKC,0.00,WeatherDisplay:10.37,2013-04-15 17:13:00,
2013-04-15 13:18:00,54.1,47.0,28.56,ESE,112,2.5,4.6,77,0.00,CLR,SKC,0.00,WeatherDisplay:10.37,2013-04-15 17:18:00,
2013-04-15 13:21:00,54.1,47.0,28.56,ESE,112,2.6,4.6,77,0.00,CLR,SKC,0.00,WeatherDisplay:10.37,2013-04-15 17:21:00,
2013-04-15 13:22:00,54.1,46.7,28.56,ESE,112,3.3,4.6,76,0.00,CLR,SKC,0.00,WeatherDisplay:10.37,2013-04-15 17:22:00,
2013-04-15 13:25:00,54.1,47.0,28.56,South,180,1.1,3.5,77,0.00,CLR,SKC,0.00,WeatherDisplay:10.37,2013-04-15 17:25:00,
2013-04-15 13:30:00,54.1,47.4,28.56,ENE,67,5.0,6.9,78,0.00,CLR,SKC,0.00,WeatherDisplay:10.37,2013-04-15 17:30:00,
2013-04-15 13:35:00,54.1,47.4,28.56,ESE,112,1.7,3.5,78,0.00,CLR,SKC,0.00,WeatherDisplay:10.37,2013-04-15 17:35:00,
2013-04-15 13:40:00,54.1,47.0,28.56,ESE,112,7.0,8.1,77,0.00,CLR,SKC,0.00,WeatherDisplay:10.37,2013-04-15 17:40:00,
2013-04-15 13:46:00,54.1,46.3,28.57,ENE,67,3.9,8.1,75,0.00,CLR,SKC,0.00,WeatherDisplay:10.37,2013-04-15 17:46:00,
2013-04-15 13:51:00,53.1,45.4,28.57,North,360,1.0,3.5,75,0.00,CLR,SKC,0.00,WeatherDisplay:10.37,2013-04-15 17:51:00,
2013-04-15 13:56:00,54.1,46.7,28.57,ESE,112,3.8,7.0,76,0.00,CLR,SKC,0.00,WeatherDisplay:10.37,2013-04-15 17:56:00,
2013-04-15 14:01:00,54.1,47.0,28.57,East,90,3.8,6.9,77,0.00,CLR,SKC,0.00,WeatherDisplay:10.37,2013-04-15 18:01:00,
2013-04-15 14:06:00,53.1,46.1,28.57,ESE,112,2.6,3.5,77,0.00,CLR,SKC,0.00,WeatherDisplay:10.37,2013-04-15 18:06:00,
2013-04-15 14:11:00,52.1,45.1,28.57,NE,45,2.5,5.0,77,0.00,CLR,SKC,0.00,WeatherDisplay:10.37,2013-04-15 18:11:00,
2013-04-15 14:16:00,52.1,45.4,28.57,East,90,3.0,4.6,78,0.00,CLR,SKC,0.00,WeatherDisplay:10.37,2013-04-15 18:16:00,
2013-04-15 14:21:00,53.1,46.7,28.57,East,90,4.0,6.9,79,0.00,CLR,SKC,0.00,WeatherDisplay:10.37,2013-04-15 18:21:00,
2013-04-15 14:26:00,54.1,48.0,28.57,ENE,67,2.8,8.1,80,0.00,CLR,SKC,0.00,WeatherDisplay:10.37,2013-04-15 18:26:00,
2013-04-15 14:29:00,52.1,46.1,28.57,NE,45,3.1,5.8,80,0.00,CLR,SKC,0.00,WeatherDisplay:10.37,2013-04-15 18:29:00,
2013-04-15 14:30:00,52.1,46.1,28.57,ENE,67,2.1,5.0,80,0.00,CLR,SKC,0.00,WeatherDisplay:10.37,2013-04-15 18:30:00,
2013-04-15 14:31:00,52.1,46.1,28.57,NE,45,3.0,6.9,80,0.00,CLR,SKC,0.00,WeatherDisplay:10.37,2013-04-15 18:31:00,
2013-04-15 14:36:00,52.1,46.1,28.56,East,90,3.9,4.6,80,0.00,CLR,SKC,0.00,WeatherDisplay:10.37,2013-04-15 18:36:00,
2013-04-15 14:41:00,53.1,47.1,28.56,East,90,3.5,6.9,80,0.00,CLR,SKC,0.00,WeatherDisplay:10.37,2013-04-15 18:41:00,
2013-04-15 14:46:00,53.1,47.1,28.56,East,90,2.9,7.0,80,0.00,CLR,SKC,0.00,WeatherDisplay:10.37,2013-04-15 18:46:00,
2013-04-15 14:51:00,53.1,46.7,28.56,East,90,3.1,7.0,79,0.00,CLR,SKC,0.00,WeatherDisplay:10.37,2013-04-15 18:51:00,
2013-04-15 14:56:00,53.1,46.7,28.56,East,90,3.8,9.2,79,0.00,CLR,SKC,0.00,WeatherDisplay:10.37,2013-04-15 18:56:00,
2013-04-15 15:01:00,53.1,45.4,28.56,SE,135,9.2,11.5,75,0.00,CLR,SKC,0.00,WeatherDisplay:10.37,2013-04-15 19:01:00,
2013-04-15 15:06:00,52.1,45.1,28.56,ESE,112,4.2,5.8,77,0.00,CLR,SKC,0.00,WeatherDisplay:10.37,2013-04-15 19:06:00,
2013-04-15 15:11:00,52.1,46.1,28.56,East,90,3.4,8.1,80,0.00,CLR,SKC,0.00,WeatherDisplay:10.37,2013-04-15 19:11:00,
2013-04-15 15:16:00,53.1,46.4,28.56,ESE,112,5.6,10.4,78,0.00,CLR,SKC,0.00,WeatherDisplay:10.37,2013-04-15 19:16:00,
2013-04-15 15:21:00,52.1,44.7,28.56,ESE,112,6.4,10.4,76,0.00,CLR,SKC,0.00,WeatherDisplay:10.37,2013-04-15 19:21:00,
2013-04-15 15:26:00,51.1,45.1,28.56,ESE,112,8.4,10.4,80,0.00,CLR,SKC,0.00,WeatherDisplay:10.37,2013-04-15 19:26:00,
2013-04-15 15:31:00,52.1,46.1,28.56,ESE,112,7.5,8.1,80,0.00,CLR,SKC,0.00,WeatherDisplay:10.37,2013-04-15 19:31:00,
2013-04-15 15:36:00,52.1,46.4,28.56,ESE,112,5.3,10.0,81,0.00,CLR,SKC,0.00,WeatherDisplay:10.37,2013-04-15 19:36:00,
2013-04-15 15:42:00,51.1,45.1,28.56,ESE,112,7.2,9.2,80,0.00,CLR,SKC,0.00,WeatherDisplay:10.37,2013-04-15 19:42:00,
2013-04-15 15:47:00,52.1,46.8,28.55,ESE,112,6.2,10.4,82,0.00,CLR,SKC,0.00,WeatherDisplay:10.37,2013-04-15 19:47:00,
2013-04-15 15:52:00,52.1,46.4,28.55,SE,135,10.1,12.7,81,0.00,CLR,SKC,0.00,WeatherDisplay:10.37,2013-04-15 19:52:00,
2013-04-15 15:57:00,51.1,45.8,28.54,East,90,6.0,11.5,82,0.00,CLR,SKC,0.00,WeatherDisplay:10.37,2013-04-15 19:57:00,
2013-04-15 15:58:00,51.1,45.8,28.54,ESE,112,5.4,9.2,82,0.00,CLR,SKC,0.00,WeatherDisplay:10.37,2013-04-15 19:58:00,
2013-04-15 16:02:00,51.1,45.1,28.54,ESE,112,7.4,9.2,80,0.00,CLR,SKC,0.00,WeatherDisplay:10.37,2013-04-15 20:02:00,
2013-04-15 16:03:00,51.1,45.1,28.54,ESE,112,8.0,10.4,80,0.00,CLR,SKC,0.00,WeatherDisplay:10.37,2013-04-15 20:03:00,
2013-04-15 16:04:00,50.1,44.5,28.54,ESE,112,7.8,12.0,81,0.00,CLR,SKC,0.00,WeatherDisplay:10.37,2013-04-15 20:04:00,
2013-04-15 16:09:00,50.1,44.8,28.54,SE,135,6.4,8.1,82,0.00,CLR,SKC,0.00,WeatherDisplay:10.37,2013-04-15 20:09:00,
2013-04-15 16:14:00,50.1,44.8,28.54,ESE,112,8.1,11.5,82,0.00,CLR,SKC,0.00,WeatherDisplay:10.37,2013-04-15 20:14:00,
2013-04-15 16:19:00,50.1,44.8,28.54,East,90,7.3,11.5,82,0.00,CLR,SKC,0.00,WeatherDisplay:10.37,2013-04-15 20:19:00,
2013-04-15 16:24:00,50.1,44.8,28.54,East,90,5.6,8.1,82,0.00,CLR,SKC,0.00,WeatherDisplay:10.37,2013-04-15 20:24:00,
2013-04-15 16:29:00,50.1,45.1,28.54,ESE,112,8.3,10.4,83,0.00,CLR,SKC,0.00,WeatherDisplay:10.37,2013-04-15 20:29:00,
2013-04-15 16:34:00,50.1,45.1,28.54,ESE,112,8.7,11.5,83,0.00,CLR,SKC,0.00,WeatherDisplay:10.37,2013-04-15 20:34:00,
2013-04-15 16:39:00,49.1,43.8,28.54,ESE,112,8.9,11.5,82,0.00,CLR,SKC,0.00,WeatherDisplay:10.37,2013-04-15 20:39:00,
2013-04-15 16:44:00,49.1,43.8,28.54,ESE,112,6.7,10.4,82,0.00,CLR,SKC,0.00,WeatherDisplay:10.37,2013-04-15 20:44:00,
2013-04-15 16:49:00,49.1,43.8,28.54,ESE,112,6.2,9.2,82,0.00,CLR,SKC,0.00,WeatherDisplay:10.37,2013-04-15 20:49:00,
2013-04-15 16:54:00,49.1,43.8,28.55,ESE,112,6.4,8.1,82,0.00,CLR,SKC,0.00,WeatherDisplay:10.37,2013-04-15 20:54:00,
2013-04-15 16:59:00,49.1,43.2,28.55,SE,135,5.7,6.9,80,0.00,CLR,SKC,0.00,WeatherDisplay:10.37,2013-04-15 20:59:00,
2013-04-15 17:04:00,49.1,43.2,28.56,SE,135,5.6,7.0,80,0.00,CLR,SKC,0.00,WeatherDisplay:10.37,2013-04-15 21:04:00,
2013-04-15 17:09:00,49.1,43.8,28.56,ESE,112,5.2,8.0,82,0.00,CLR,SKC,0.00,WeatherDisplay:10.37,2013-04-15 21:09:00,
2013-04-15 17:14:00,49.1,44.1,28.56,ESE,112,6.0,8.1,83,0.00,CLR,SKC,0.00,WeatherDisplay:10.37,2013-04-15 21:14:00,
2013-04-15 17:19:00,49.1,44.1,28.56,SSE,157,5.2,9.2,83,0.00,CLR,SKC,0.00,WeatherDisplay:10.37,2013-04-15 21:19:00,
2013-04-15 17:24:00,48.1,42.8,28.56,SE,135,7.9,11.5,82,0.00,CLR,SKC,0.00,WeatherDisplay:10.37,2013-04-15 21:24:00,
2013-04-15 17:29:00,48.1,43.2,28.56,SSE,157,5.2,8.1,83,0.00,CLR,SKC,0.00,WeatherDisplay:10.37,2013-04-15 21:29:00,
2013-04-15 17:34:00,47.1,42.2,28.56,SSE,157,5.1,7.0,83,0.00,CLR,SKC,0.00,WeatherDisplay:10.37,2013-04-15 21:34:00,
2013-04-15 17:39:00,47.1,42.2,28.56,ESE,112,5.3,8.1,83,0.00,CLR,SKC,0.00,WeatherDisplay:10.37,2013-04-15 21:39:00,
2013-04-15 17:44:00,47.1,42.2,28.56,ESE,112,5.9,8.1,83,0.00,CLR,SKC,0.00,WeatherDisplay:10.37,2013-04-15 21:44:00,
2013-04-15 17:49:00,47.1,42.5,28.56,SE,135,6.5,10.4,84,0.00,CLR,SKC,0.00,WeatherDisplay:10.37,2013-04-15 21:49:00,
2013-04-15 17:54:00,47.1,42.5,28.56,SE,135,5.5,6.9,84,0.00,CLR,SKC,0.00,WeatherDisplay:10.37,2013-04-15 21:54:00,
2013-04-15 17:59:00,46.1,41.5,28.56,SE,135,5.3,9.0,84,0.00,CLR,SKC,0.00,WeatherDisplay:10.37,2013-04-15 21:59:00,
2013-04-15 18:04:00,46.1,41.5,28.56,SE,135,4.3,6.9,84,0.00,CLR,SKC,0.00,WeatherDisplay:10.37,2013-04-15 22:04:00,
2013-04-15 18:09:00,46.1,41.5,28.56,SSE,157,5.1,6.0,84,0.00,CLR,SKC,0.00,WeatherDisplay:10.37,2013-04-15 22:09:00,
2013-04-15 18:14:00,46.1,41.5,28.57,ESE,112,6.6,8.1,84,0.00,CLR,SKC,0.00,WeatherDisplay:10.37,2013-04-15 22:14:00,
2013-04-15 18:19:00,46.1,41.5,28.57,SE,135,2.7,5.8,84,0.00,CLR,SKC,0.00,WeatherDisplay:10.37,2013-04-15 22:19:00,
2013-04-15 18:24:00,46.1,40.9,28.56,ESE,112,5.1,6.9,82,0.00,CLR,SKC,0.00,WeatherDisplay:10.37,2013-04-15 22:24:00,
2013-04-15 18:29:00,46.1,40.3,28.56,ESE,112,6.0,8.1,80,0.00,CLR,SKC,0.00,WeatherDisplay:10.37,2013-04-15 22:29:00,
2013-04-15 18:34:00,46.1,39.9,28.56,ESE,112,4.3,4.6,79,0.00,CLR,SKC,0.00,WeatherDisplay:10.37,2013-04-15 22:34:00,
2013-04-15 18:39:00,46.1,38.9,28.56,SE,135,5.9,9.2,76,0.00,CLR,SKC,0.00,WeatherDisplay:10.37,2013-04-15 22:39:00,
2013-04-15 18:44:00,46.1,37.6,28.57,SE,135,3.1,4.6,72,0.00,CLR,SKC,0.00,WeatherDisplay:10.37,2013-04-15 22:44:00,
2013-04-15 18:49:00,45.1,36.6,28.57,ESE,112,4.3,5.8,72,0.00,CLR,SKC,0.00,WeatherDisplay:10.37,2013-04-15 22:49:00,
2013-04-15 18:54:00,45.1,36.6,28.57,SE,135,4.4,6.9,72,0.00,CLR,SKC,0.00,WeatherDisplay:10.37,2013-04-15 22:54:00,
2013-04-15 18:59:00,45.1,36.2,28.57,SE,135,4.0,5.0,71,0.00,CLR,SKC,0.00,WeatherDisplay:10.37,2013-04-15 22:59:00,
2013-04-15 19:04:00,45.1,35.5,28.57,SE,135,3.6,4.6,69,0.00,CLR,SKC,0.00,WeatherDisplay:10.37,2013-04-15 23:04:00,
2013-04-15 19:09:00,45.1,34.8,28.57,ESE,112,2.4,5.0,67,0.00,CLR,SKC,0.00,WeatherDisplay:10.37,2013-04-15 23:09:00,
2013-04-15 19:14:00,44.1,33.1,28.58,ESE,112,2.9,3.5,65,0.00,CLR,SKC,0.00,WeatherDisplay:10.37,2013-04-15 23:14:00,
2013-04-15 19:19:00,44.1,32.7,28.58,ESE,112,0.0,0.0,64,0.00,CLR,SKC,0.00,WeatherDisplay:10.37,2013-04-15 23:19:00,
2013-04-15 19:24:00,44.1,32.7,28.58,ESE,112,1.1,3.5,64,0.00,CLR,SKC,0.00,WeatherDisplay:10.37,2013-04-15 23:24:00,
2013-04-15 19:29:00,43.1,31.3,28.58,ESE,112,0.0,0.0,63,0.00,CLR,SKC,0.00,WeatherDisplay:10.37,2013-04-15 23:29:00,
2013-04-15 19:34:00,43.1,31.3,28.58,ESE,112,1.2,2.3,63,0.00,CLR,SKC,0.00,WeatherDisplay:10.37,2013-04-15 23:34:00,
2013-04-15 19:39:00,43.1,31.3,28.58,ESE,112,1.2,3.5,63,0.00,CLR,SKC,0.00,WeatherDisplay:10.37,2013-04-15 23:39:00,
2013-04-15 19:44:00,43.1,30.9,28.58,ESE,112,0.2,2.0,62,0.00,CLR,SKC,0.00,WeatherDisplay:10.37,2013-04-15 23:44:00,
2013-04-15 19:49:00,43.1,30.5,28.58,SE,135,0.5,3.5,61,0.00,CLR,SKC,0.00,WeatherDisplay:10.37,2013-04-15 23:49:00,
2013-04-15 19:54:00,43.1,29.7,28.58,ESE,112,0.1,1.0,59,0.00,CLR,SKC,0.00,WeatherDisplay:10.37,2013-04-15 23:54:00,
2013-04-15 19:59:00,43.1,28.9,28.58,ESE,112,0.0,0.0,57,0.00,CLR,SKC,0.00,WeatherDisplay:10.37,2013-04-15 23:59:00,
2013-04-15 20:04:00,42.1,27.1,28.60,ESE,112,0.0,0.0,55,0.00,CLR,SKC,0.00,WeatherDisplay:10.37,2013-04-16 00:04:00,
2013-04-15 20:09:00,42.1,26.6,28.60,ESE,112,0.7,2.3,54,0.00,CLR,SKC,0.00,WeatherDisplay:10.37,2013-04-16 00:09:00,
2013-04-15 20:14:00,42.1,25.7,28.60,SE,135,0.5,2.3,52,0.00,CLR,SKC,0.00,WeatherDisplay:10.37,2013-04-16 00:14:00,
2013-04-15 20:19:00,42.1,23.3,28.60,SE,135,0.1,2.3,47,0.00,CLR,SKC,0.00,WeatherDisplay:10.37,2013-04-16 00:19:00,
2013-04-15 20:24:00,42.1,21.7,28.60,SE,135,0.0,0.0,44,0.00,CLR,SKC,0.00,WeatherDisplay:10.37,2013-04-16 00:24:00,
2013-04-15 20:29:00,42.1,20.6,28.60,SSE,157,0.0,0.0,42,0.00,CLR,SKC,0.00,WeatherDisplay:10.37,2013-04-16 00:29:00,
2013-04-15 20:34:00,42.1,20.0,28.62,SSE,157,0.0,0.0,41,0.00,CLR,SKC,0.00,WeatherDisplay:10.37,2013-04-16 00:34:00,
2013-04-15 20:39:00,41.1,19.1,28.62,SSE,157,0.0,0.0,41,0.00,CLR,SKC,0.00,WeatherDisplay:10.37,2013-04-16 00:39:00,
2013-04-15 20:44:00,41.1,19.1,28.62,SSE,157,0.0,0.0,41,0.00,CLR,SKC,0.00,WeatherDisplay:10.37,2013-04-16 00:44:00,
2013-04-15 20:49:00,41.1,19.1,28.62,SE,135,0.0,0.0,41,0.00,CLR,SKC,0.00,WeatherDisplay:10.37,2013-04-16 00:49:00,
2013-04-15 20:54:00,41.1,19.1,28.62,SE,135,0.0,0.0,41,0.00,CLR,SKC,0.00,WeatherDisplay:10.37,2013-04-16 00:54:00,
2013-04-15 20:59:00,40.1,18.2,28.62,SE,135,0.0,0.0,41,0.00,CLR,SKC,0.00,WeatherDisplay:10.37,2013-04-16 00:59:00,
2013-04-15 21:04:00,40.1,18.2,28.63,SE,135,0.0,0.0,41,0.00,CLR,SKC,0.00,WeatherDisplay:10.37,2013-04-16 01:04:00,
2013-04-15 21:09:00,40.1,18.2,28.63,SE,135,0.0,0.0,41,0.00,CLR,SKC,0.00,WeatherDisplay:10.37,2013-04-16 01:09:00,
2013-04-15 21:14:00,40.1,18.2,28.62,SE,135,0.0,0.0,41,0.00,CLR,SKC,0.00,WeatherDisplay:10.37,2013-04-16 01:14:00,
2013-04-15 21:19:00,40.1,17.7,28.62,ESE,112,0.0,0.0,40,0.00,CLR,SKC,0.00,WeatherDisplay:10.37,2013-04-16 01:19:00,
2013-04-15 21:24:00,40.1,17.1,28.62,ESE,112,0.6,2.3,39,0.00,CLR,SKC,0.00,WeatherDisplay:10.37,2013-04-16 01:24:00,
2013-04-15 21:29:00,41.1,16.8,28.62,ESE,112,0.6,2.3,37,0.00,CLR,SKC,0.00,WeatherDisplay:10.37,2013-04-16 01:29:00,
2013-04-15 21:34:00,41.1,16.1,28.62,ESE,112,0.7,2.3,36,0.00,CLR,SKC,0.00,WeatherDisplay:10.37,2013-04-16 01:34:00,
2013-04-15 21:39:00,41.1,14.8,28.62,SE,135,1.7,3.5,34,0.00,CLR,SKC,0.00,WeatherDisplay:10.37,2013-04-16 01:39:00,
2013-04-15 21:44:00,41.1,13.4,28.62,ESE,112,1.3,3.5,32,0.00,CLR,SKC,0.00,WeatherDisplay:10.37,2013-04-16 01:44:00,
2013-04-15 21:49:00,41.1,12.0,28.62,ESE,112,1.1,2.3,30,0.00,CLR,SKC,0.00,WeatherDisplay:10.37,2013-04-16 01:49:00,
2013-04-15 21:54:00,41.1,11.2,28.62,ESE,112,1.4,3.5,29,0.00,CLR,SKC,0.00,WeatherDisplay:10.37,2013-04-16 01:54:00,
2013-04-15 21:59:00,41.1,9.6,28.62,ESE,112,3.5,4.6,27,0.00,CLR,SKC,0.00,WeatherDisplay:10.37,2013-04-16 01:59:00,
2013-04-15 22:04:00,41.1,8.7,28.60,ESE,112,1.6,3.5,26,0.00,CLR,SKC,0.00,WeatherDisplay:10.37,2013-04-16 02:04:00,
2013-04-15 22:09:00,41.1,7.0,28.60,SE,135,2.3,3.5,24,0.00,CLR,SKC,0.00,WeatherDisplay:10.37,2013-04-16 02:09:00,
2013-04-15 22:14:00,41.1,4.0,28.60,SE,135,2.7,4.6,21,0.00,CLR,SKC,0.00,WeatherDisplay:10.37,2013-04-16 02:14:00,
2013-04-15 22:19:00,41.1,1.9,28.60,ESE,112,1.3,4.0,19,0.00,CLR,SKC,0.00,WeatherDisplay:10.37,2013-04-16 02:19:00,
2013-04-15 22:24:00,41.1,-0.5,28.61,SE,135,1.2,3.5,17,0.00,CLR,SKC,0.00,WeatherDisplay:10.37,2013-04-16 02:24:00,
2013-04-15 22:29:00,41.1,-1.8,28.61,ESE,112,2.0,3.5,16,0.00,CLR,SKC,0.00,WeatherDisplay:10.37,2013-04-16 02:29:00,
2013-04-15 22:34:00,41.1,-3.2,28.61,ESE,112,2.7,4.0,15,0.00,CLR,SKC,0.00,WeatherDisplay:10.37,2013-04-16 02:34:00,
2013-04-15 22:39:00,41.1,-4.6,28.61,ESE,112,1.3,3.5,14,0.00,CLR,SKC,0.00,WeatherDisplay:10.37,2013-04-16 02:39:00,
2013-04-15 22:44:00,41.1,-7.8,28.61,SE,135,1.2,3.5,12,0.00,CLR,SKC,0.00,WeatherDisplay:10.37,2013-04-16 02:44:00,
2013-04-15 22:49:00,41.1,-7.8,28.61,ESE,112,1.5,3.0,12,0.00,CLR,SKC,0.00,WeatherDisplay:10.37,2013-04-16 02:49:00,
2013-04-15 22:54:00,41.1,-9.6,28.60,SE,135,1.2,3.5,11,0.00,CLR,SKC,0.00,WeatherDisplay:10.37,2013-04-16 02:54:00,
2013-04-15 22:59:00,41.1,-9.6,28.60,SE,135,2.6,4.6,11,0.00,CLR,SKC,0.00,WeatherDisplay:10.37,2013-04-16 02:59:00,
2013-04-15 23:04:00,41.1,-11.5,28.60,ESE,112,3.0,4.6,10,0.00,CLR,SKC,0.00,WeatherDisplay:10.37,2013-04-16 03:04:00,
2013-04-15 23:09:00,41.1,-13.6,28.60,ESE,112,2.7,3.5,9,0.00,CLR,SKC,0.00,WeatherDisplay:10.37,2013-04-16 03:09:00,
2013-04-15 23:14:00,41.1,-15.9,28.60,SE,135,3.5,4.6,8,0.00,CLR,SKC,0.00,WeatherDisplay:10.37,2013-04-16 03:14:00,
2013-04-15 23:19:00,41.1,-18.5,28.60,SSE,157,1.4,4.0,7,0.00,CLR,SKC,0.00,WeatherDisplay:10.37,2013-04-16 03:19:00,
2013-04-15 23:24:00,41.1,-18.5,28.60,ESE,112,1.0,2.3,7,0.00,CLR,SKC,0.00,WeatherDisplay:10.37,2013-04-16 03:24:00,
2013-04-15 23:29:00,41.1,-21.5,28.60,ESE,112,1.4,3.5,6,0.00,CLR,SKC,0.00,WeatherDisplay:10.37,2013-04-16 03:29:00,
2013-04-15 23:34:00,41.1,-21.5,28.60,ESE,112,0.4,2.3,6,0.00,CLR,SKC,0.00,WeatherDisplay:10.37,2013-04-16 03:34:00,
2013-04-15 23:39:00,41.1,-25.0,28.60,ESE,112,0.9,3.5,5,0.00,CLR,SKC,0.00,WeatherDisplay:10.37,2013-04-16 03:39:00,
2013-04-15 23:44:00,41.1,-25.0,28.60,ESE,112,1.6,3.5,5,0.00,CLR,SKC,0.00,WeatherDisplay:10.37,2013-04-16 03:44:00,
2013-04-15 23:49:00,41.1,-25.0,28.60,ESE,112,1.7,3.5,5,0.00,CLR,SKC,0.00,WeatherDisplay:10.37,2013-04-16 03:49:00,
2013-04-15 23:54:00,41.1,-29.1,28.60,ESE,112,0.0,0.0,4,0.00,CLR,SKC,0.00,WeatherDisplay:10.37,2013-04-16 03:54:00,
2013-04-15 23:59:00,42.1,-33.7,28.60,ESE,112,3.0,4.6,3,0.00,CLR,SKC,0.00,WeatherDisplay:10.37,2013-04-16 03:59:00,